createdAt,value
2024-03-02T00:00:11.853Z,9.462991
2024-03-02T00:01:11.989Z,9.462939
2024-03-02T00:02:11.790Z,9.463002
2024-03-02T00:03:11.890Z,9.463039
2024-03-02T00:04:11.802Z,9.463150
2024-03-02T00:05:11.820Z,9.463141
2024-03-02T00:06:11.857Z,9.463146
2024-03-02T00:07:11.780Z,9.463026
2024-03-02T00:08:11.755Z,9.462968
2024-03-02T00:09:11.771Z,9.463038
2024-03-02T00:10:11.736Z,9.463008
2024-03-02T00:11:11.756Z,9.463111
2024-03-02T00:12:11.827Z,9.463161
2024-03-02T00:13:11.727Z,9.462981
2024-03-02T00:14:11.712Z,9.462914
2024-03-02T00:15:11.780Z,9.462990
2024-03-02T00:16:11.704Z,9.463000
2024-03-02T00:17:11.833Z,9.462960
2024-03-02T00:18:11.777Z,9.462976
2024-03-02T00:19:11.900Z,9.462836
2024-03-02T00:20:11.677Z,9.462820
2024-03-02T00:21:11.709Z,9.462645
2024-03-02T00:22:11.682Z,9.462769
2024-03-02T00:23:11.691Z,9.463034
2024-03-02T00:24:11.731Z,9.463174
2024-03-02T00:25:11.665Z,9.463009
2024-03-02T00:26:11.732Z,9.462951
2024-03-02T00:27:11.726Z,9.462907
2024-03-02T00:28:11.643Z,9.462861
2024-03-02T00:29:11.618Z,9.462839
2024-03-02T00:30:11.640Z,9.462856
2024-03-02T00:31:11.632Z,9.462612
2024-03-02T00:32:11.606Z,9.462804
2024-03-02T00:33:11.681Z,9.462882
2024-03-02T00:34:11.677Z,9.462770
2024-03-02T00:35:18.625Z,9.462909
2024-03-02T00:36:11.748Z,9.463178
2024-03-02T00:37:18.670Z,9.462877
2024-03-02T00:38:11.586Z,9.462835
2024-03-02T00:39:11.569Z,9.462630
2024-03-02T00:40:11.604Z,9.462737
2024-03-02T00:41:11.578Z,9.462798
2024-03-02T00:42:11.525Z,9.462905
2024-03-02T00:43:11.560Z,9.462990
2024-03-02T00:44:11.551Z,9.463035
2024-03-02T00:45:11.888Z,9.463326
2024-03-02T00:46:11.546Z,9.463256
2024-03-02T00:47:11.519Z,9.463474
2024-03-02T00:48:11.497Z,9.463344
2024-03-02T00:49:11.518Z,9.463183
2024-03-02T00:50:20.137Z,9.462825
2024-03-02T00:51:12.500Z,9.463091
2024-03-02T00:52:11.465Z,9.463270
2024-03-02T00:53:11.488Z,9.462852
2024-03-02T00:54:11.493Z,9.462882
2024-03-02T00:55:11.455Z,9.462852
2024-03-02T00:56:11.469Z,9.462925
2024-03-02T00:57:11.431Z,9.462983
2024-03-02T00:58:11.427Z,9.462709
2024-03-02T00:59:11.414Z,9.462452
2024-03-02T01:00:11.430Z,9.462660
2024-03-02T01:01:11.506Z,9.462625
2024-03-02T01:02:11.426Z,9.462349
2024-03-02T01:03:11.392Z,9.462717
2024-03-02T01:04:11.386Z,9.462964
2024-03-02T01:05:11.388Z,9.462964
2024-03-02T01:06:11.413Z,9.462950
2024-03-02T01:07:11.388Z,9.462946
2024-03-02T01:08:11.394Z,9.462947
2024-03-02T01:09:11.395Z,9.462875
2024-03-02T01:10:11.363Z,9.462942
2024-03-02T01:11:11.404Z,9.462960
2024-03-02T01:12:11.428Z,9.462930
2024-03-02T01:13:11.327Z,9.462918
2024-03-02T01:14:11.320Z,9.462956
2024-03-02T01:15:11.312Z,9.462921
2024-03-02T01:16:11.350Z,9.462898
2024-03-02T01:17:11.374Z,9.462904
2024-03-02T01:18:11.286Z,9.462894
2024-03-02T01:19:12.300Z,9.462875
2024-03-02T01:20:11.274Z,9.462905
2024-03-02T01:21:11.300Z,9.462859
2024-03-02T01:22:11.324Z,9.462861
2024-03-02T01:23:11.254Z,9.462902
2024-03-02T01:24:11.244Z,9.462934
2024-03-02T01:25:11.264Z,9.462945
2024-03-02T01:26:11.295Z,9.462962
2024-03-02T01:27:11.269Z,9.462963
2024-03-02T01:28:11.290Z,9.462901
2024-03-02T01:29:11.222Z,9.462893
2024-03-02T01:30:11.217Z,9.462900
2024-03-02T01:31:11.203Z,9.462896
2024-03-02T01:32:11.372Z,9.462818
2024-03-02T01:33:11.210Z,9.462881
2024-03-02T01:34:12.710Z,9.462969
2024-03-02T01:35:11.174Z,9.462909
2024-03-02T01:36:11.246Z,9.462948
2024-03-02T01:37:11.215Z,9.462974
2024-03-02T01:38:11.162Z,9.462989
2024-03-02T01:39:11.154Z,9.462958
2024-03-02T01:40:11.145Z,9.463002
2024-03-02T01:41:11.235Z,9.462992
2024-03-02T01:42:11.153Z,9.462939
2024-03-02T01:43:11.250Z,9.462909
2024-03-02T01:44:11.114Z,9.462896
2024-03-02T01:45:11.186Z,9.462908
2024-03-02T01:46:11.162Z,9.462826
2024-03-02T01:47:11.098Z,9.462888
2024-03-02T01:48:11.499Z,9.462893
2024-03-02T01:49:11.108Z,9.462912
2024-03-02T01:50:11.081Z,9.462937
2024-03-02T01:51:11.090Z,9.462943
2024-03-02T01:52:11.073Z,9.462945
2024-03-02T01:53:11.503Z,9.462957
2024-03-02T01:54:11.059Z,9.462979
2024-03-02T01:55:11.051Z,9.462996
2024-03-02T01:56:11.047Z,9.462975
2024-03-02T01:57:11.062Z,9.462951
2024-03-02T01:58:11.118Z,9.462981
2024-03-02T01:59:11.031Z,9.462956
2024-03-02T02:00:11.046Z,9.462900
2024-03-02T02:01:11.091Z,9.462904
2024-03-02T02:02:11.056Z,9.462976
2024-03-02T02:03:11.047Z,9.462962
2024-03-02T02:04:10.990Z,9.462996
2024-03-02T02:05:10.997Z,9.462999
2024-03-02T02:06:10.990Z,9.463006
2024-03-02T02:07:11.102Z,9.463030
2024-03-02T02:08:10.959Z,9.463015
2024-03-02T02:09:10.966Z,9.462962
2024-03-02T02:10:10.947Z,9.462967
2024-03-02T02:11:10.954Z,9.463007
2024-03-02T02:12:11.004Z,9.462972
2024-03-02T02:13:10.963Z,9.463018
2024-03-02T02:14:10.922Z,9.463036
2024-03-02T02:15:10.913Z,9.463037
2024-03-02T02:16:10.909Z,9.463035
2024-03-02T02:17:10.916Z,9.463014
2024-03-02T02:18:10.988Z,9.463035
2024-03-02T02:19:11.096Z,9.463057
2024-03-02T02:20:10.932Z,9.463027
2024-03-02T02:21:10.880Z,9.463019
2024-03-02T02:22:10.886Z,9.463050
2024-03-02T02:23:11.086Z,9.463039
2024-03-02T02:24:10.871Z,9.463046
2024-03-02T02:25:10.848Z,9.463008
2024-03-02T02:26:10.847Z,9.462988
2024-03-02T02:27:10.862Z,9.463070
2024-03-02T02:28:10.839Z,9.463000
2024-03-02T02:29:10.858Z,9.462996
2024-03-02T02:30:10.817Z,9.462953
2024-03-02T02:31:10.895Z,9.463031
2024-03-02T02:32:10.847Z,9.463027
2024-03-02T02:33:10.841Z,9.462979
2024-03-02T02:34:10.912Z,9.462955
2024-03-02T02:35:10.772Z,9.462947
2024-03-02T02:36:10.778Z,9.462976
2024-03-02T02:37:10.787Z,9.462996
2024-03-02T02:38:10.760Z,9.463008
2024-03-02T02:39:10.757Z,9.463022
2024-03-02T02:40:10.763Z,9.462989
2024-03-02T02:41:10.761Z,9.462974
2024-03-02T02:42:10.784Z,9.463062
2024-03-02T02:43:10.745Z,9.463041
2024-03-02T02:44:10.745Z,9.463097
2024-03-02T02:45:10.744Z,9.463033
2024-03-02T02:46:10.807Z,9.463146
2024-03-02T02:47:10.745Z,9.462977
2024-03-02T02:48:10.746Z,9.463011
2024-03-02T02:49:10.691Z,9.463027
2024-03-02T02:50:10.736Z,9.462958
2024-03-02T02:51:10.689Z,9.462966
2024-03-02T02:52:10.707Z,9.462985
2024-03-02T02:53:10.668Z,9.463022
2024-03-02T02:54:10.670Z,9.462987
2024-03-02T02:55:10.649Z,9.463015
2024-03-02T02:56:10.642Z,9.462996
2024-03-02T02:57:10.663Z,9.462949
2024-03-02T02:58:10.625Z,9.462934
2024-03-02T02:59:10.632Z,9.462953
2024-03-02T03:00:10.655Z,9.462951
2024-03-02T03:01:10.716Z,9.462998
2024-03-02T03:02:10.613Z,9.462964
2024-03-02T03:03:10.613Z,9.463001
2024-03-02T03:04:10.585Z,9.462963
2024-03-02T03:05:10.642Z,9.462932
2024-03-02T03:06:10.583Z,9.462990
2024-03-02T03:07:10.586Z,9.463035
2024-03-02T03:08:10.581Z,9.463002
2024-03-02T03:09:10.564Z,9.462923
2024-03-02T03:10:10.669Z,9.462905
2024-03-02T03:11:10.604Z,9.462928
2024-03-02T03:12:10.532Z,9.462995
2024-03-02T03:13:10.896Z,9.463010
2024-03-02T03:14:10.515Z,9.463063
2024-03-02T03:15:10.884Z,9.463048
2024-03-02T03:16:10.530Z,9.463076
2024-03-02T03:17:11.331Z,9.462993
2024-03-02T03:18:10.592Z,9.462964
2024-03-02T03:19:10.488Z,9.462984
2024-03-02T03:20:10.510Z,9.463013
2024-03-02T03:21:10.476Z,9.463058
2024-03-02T03:22:10.468Z,9.463022
2024-03-02T03:23:10.680Z,9.463022
2024-03-02T03:24:10.473Z,9.463036
2024-03-02T03:25:10.505Z,9.463024
2024-03-02T03:26:10.460Z,9.462992
2024-03-02T03:27:10.475Z,9.462998
2024-03-02T03:28:10.427Z,9.463012
2024-03-02T03:29:10.425Z,9.462979
2024-03-02T03:30:10.503Z,9.463026
2024-03-02T03:31:10.426Z,9.462957
2024-03-02T03:32:10.442Z,9.463013
2024-03-02T03:33:10.410Z,9.463134
2024-03-02T03:34:10.381Z,9.463055
2024-03-02T03:35:10.448Z,9.463071
2024-03-02T03:36:10.376Z,9.462958
2024-03-02T03:37:10.535Z,9.463072
2024-03-02T03:38:10.351Z,9.463018
2024-03-02T03:39:10.352Z,9.463079
2024-03-02T03:40:10.350Z,9.463039
2024-03-02T03:41:10.334Z,9.463005
2024-03-02T03:42:10.355Z,9.463074
2024-03-02T03:43:10.332Z,9.463092
2024-03-02T03:44:10.321Z,9.463061
2024-03-02T03:45:10.341Z,9.463029
2024-03-02T03:46:10.302Z,9.463069
2024-03-02T03:47:10.328Z,9.463045
2024-03-02T03:48:10.326Z,9.463024
2024-03-02T03:49:10.321Z,9.463014
2024-03-02T03:50:10.283Z,9.463083
2024-03-02T03:51:10.287Z,9.463039
2024-03-02T03:52:11.152Z,9.463042
2024-03-02T03:53:10.272Z,9.462909
2024-03-02T03:54:10.278Z,9.462971
2024-03-02T03:55:10.284Z,9.463223
2024-03-02T03:56:10.242Z,9.463215
2024-03-02T03:57:10.253Z,9.463231
2024-03-02T03:58:10.227Z,9.463259
2024-03-02T03:59:10.220Z,9.463223
2024-03-02T04:00:10.240Z,9.463179
2024-03-02T04:01:10.322Z,9.463037
2024-03-02T04:02:10.255Z,9.462957
2024-03-02T04:03:10.364Z,9.462963
2024-03-02T04:04:10.211Z,9.462934
2024-03-02T04:05:10.217Z,9.462974
2024-03-02T04:06:10.200Z,9.462992
2024-03-02T04:07:10.197Z,9.463033
2024-03-02T04:08:10.181Z,9.463039
2024-03-02T04:09:10.982Z,9.463050
2024-03-02T04:10:10.179Z,9.463019
2024-03-02T04:11:10.170Z,9.463034
2024-03-02T04:12:10.153Z,9.463034
2024-03-02T04:13:10.130Z,9.463008
2024-03-02T04:14:10.249Z,9.462953
2024-03-02T04:15:10.150Z,9.462995
2024-03-02T04:16:10.102Z,9.462969
2024-03-02T04:17:10.123Z,9.462990
2024-03-02T04:18:10.223Z,9.463051
2024-03-02T04:19:10.103Z,9.463021
2024-03-02T04:20:10.095Z,9.463005
2024-03-02T04:21:10.123Z,9.463024
2024-03-02T04:22:15.783Z,9.462994
2024-03-02T04:23:11.205Z,9.463097
2024-03-02T04:24:10.135Z,9.462822
2024-03-02T04:25:10.147Z,9.463036
2024-03-02T04:26:10.050Z,9.462848
2024-03-02T04:27:10.163Z,9.463044
2024-03-02T04:28:10.078Z,9.462994
2024-03-02T04:29:10.153Z,9.462701
2024-03-02T04:30:10.135Z,9.462966
2024-03-02T04:31:10.174Z,9.462947
2024-03-02T04:32:10.160Z,9.462991
2024-03-02T04:33:10.101Z,9.462906
2024-03-02T04:34:10.090Z,9.462835
2024-03-02T04:35:10.051Z,9.463041
2024-03-02T04:36:09.983Z,9.462876
2024-03-02T04:37:10.065Z,9.462943
2024-03-02T04:38:10.038Z,9.463005
2024-03-02T04:39:09.957Z,9.463024
2024-03-02T04:40:09.960Z,9.463014
2024-03-02T04:41:09.957Z,9.463041
2024-03-02T04:42:09.980Z,9.463014
2024-03-02T04:43:09.935Z,9.463046
2024-03-02T04:44:09.930Z,9.462968
2024-03-02T04:45:09.924Z,9.463008
2024-03-02T04:46:09.955Z,9.463040
2024-03-02T04:47:09.999Z,9.462983
2024-03-02T04:48:09.901Z,9.463024
2024-03-02T04:49:10.031Z,9.462997
2024-03-02T04:50:09.900Z,9.462953
2024-03-02T04:51:09.886Z,9.463024
2024-03-02T04:52:09.903Z,9.463060
2024-03-02T04:53:09.997Z,9.463036
2024-03-02T04:54:09.861Z,9.462974
2024-03-02T04:55:09.874Z,9.462992
2024-03-02T04:56:09.857Z,9.462988
2024-03-02T04:57:09.864Z,9.462973
2024-03-02T04:58:09.844Z,9.462957
2024-03-02T04:59:09.857Z,9.462986
2024-03-02T05:00:09.830Z,9.462935
2024-03-02T05:01:09.859Z,9.462974
2024-03-02T05:02:09.843Z,9.462946
2024-03-02T05:03:09.795Z,9.462889
2024-03-02T05:04:09.790Z,9.462892
2024-03-02T05:05:09.796Z,9.462923
2024-03-02T05:06:09.803Z,9.462967
2024-03-02T05:07:09.847Z,9.462951
2024-03-02T05:08:09.757Z,9.462998
2024-03-02T05:09:09.794Z,9.462983
2024-03-02T05:10:09.745Z,9.462928
2024-03-02T05:11:09.783Z,9.462949
2024-03-02T05:12:09.768Z,9.462925
2024-03-02T05:13:09.756Z,9.462972
2024-03-02T05:14:09.747Z,9.462977
2024-03-02T05:15:09.720Z,9.462914
2024-03-02T05:16:09.824Z,9.462906
2024-03-02T05:17:09.872Z,9.463016
2024-03-02T05:18:09.729Z,9.463029
2024-03-02T05:19:09.705Z,9.463056
2024-03-02T05:20:09.682Z,9.462976
2024-03-02T05:21:09.694Z,9.462991
2024-03-02T05:22:09.705Z,9.463016
2024-03-02T05:23:09.660Z,9.463030
2024-03-02T05:24:09.715Z,9.463001
2024-03-02T05:25:09.723Z,9.462994
2024-03-02T05:26:09.721Z,9.462900
2024-03-02T05:27:09.699Z,9.463046
2024-03-02T05:28:09.694Z,9.462978
2024-03-02T05:29:09.639Z,9.463022
2024-03-02T05:30:09.618Z,9.463022
2024-03-02T05:31:09.613Z,9.462987
2024-03-02T05:32:09.632Z,9.463033
2024-03-02T05:33:09.636Z,9.463028
2024-03-02T05:34:09.682Z,9.463013
2024-03-02T05:35:09.773Z,9.463035
2024-03-02T05:36:09.574Z,9.463047
2024-03-02T05:37:09.596Z,9.463094
2024-03-02T05:38:09.564Z,9.463059
2024-03-02T05:39:09.569Z,9.462984
2024-03-02T05:40:09.673Z,9.462965
2024-03-02T05:41:09.641Z,9.463015
2024-03-02T05:42:09.564Z,9.463029
2024-03-02T05:43:09.560Z,9.462980
2024-03-02T05:44:09.523Z,9.462988
2024-03-02T05:45:09.535Z,9.463016
2024-03-02T05:46:09.521Z,9.463021
2024-03-02T05:47:09.540Z,9.463051
2024-03-02T05:48:09.604Z,9.463066
2024-03-02T05:49:09.562Z,9.463052
2024-03-02T05:50:09.480Z,9.463002
2024-03-02T05:51:09.480Z,9.462939
2024-03-02T05:52:09.498Z,9.463035
2024-03-02T05:53:09.463Z,9.463059
2024-03-02T05:54:09.603Z,9.462955
2024-03-02T05:55:09.450Z,9.463024
2024-03-02T05:56:09.448Z,9.463040
2024-03-02T05:57:09.478Z,9.463083
2024-03-02T05:58:09.429Z,9.463048
2024-03-02T05:59:09.430Z,9.462978
2024-03-02T06:00:09.545Z,9.462994
2024-03-02T06:01:09.457Z,9.463022
2024-03-02T06:02:09.862Z,9.463033
2024-03-02T06:03:09.399Z,9.462992
2024-03-02T06:04:09.381Z,9.463042
2024-03-02T06:05:09.389Z,9.463020
2024-03-02T06:06:09.399Z,9.463078
2024-03-02T06:07:09.444Z,9.463018
2024-03-02T06:08:09.360Z,9.463003
2024-03-02T06:09:09.424Z,9.462998
2024-03-02T06:10:11.887Z,9.462966
2024-03-02T06:11:09.845Z,9.462996
2024-03-02T06:12:09.363Z,9.462912
2024-03-02T06:13:09.355Z,9.462996
2024-03-02T06:14:09.339Z,9.463003
2024-03-02T06:15:09.337Z,9.462983
2024-03-02T06:16:09.348Z,9.462924
2024-03-02T06:17:09.321Z,9.462975
2024-03-02T06:18:09.385Z,9.462998
2024-03-02T06:19:09.296Z,9.462933
2024-03-02T06:20:09.409Z,9.463039
2024-03-02T06:21:09.278Z,9.463025
2024-03-02T06:22:09.279Z,9.463018
2024-03-02T06:23:09.299Z,9.462957
2024-03-02T06:24:09.251Z,9.462946
2024-03-02T06:25:09.367Z,9.463008
2024-03-02T06:26:09.246Z,9.462986
2024-03-02T06:27:09.533Z,9.463005
2024-03-02T06:28:09.262Z,9.463007
2024-03-02T06:29:09.241Z,9.463029
2024-03-02T06:30:09.235Z,9.462988
2024-03-02T06:31:09.315Z,9.462989
2024-03-02T06:32:09.189Z,9.462883
2024-03-02T06:33:09.210Z,9.462971
2024-03-02T06:34:09.254Z,9.462923
2024-03-02T06:35:09.204Z,9.462901
2024-03-02T06:36:09.174Z,9.462936
2024-03-02T06:37:09.206Z,9.463013
2024-03-02T06:38:09.174Z,9.462987
2024-03-02T06:39:09.149Z,9.462923
2024-03-02T06:40:09.232Z,9.462944
2024-03-02T06:41:09.424Z,9.462968
2024-03-02T06:42:09.128Z,9.462957
2024-03-02T06:43:09.134Z,9.462932
2024-03-02T06:44:09.146Z,9.462879
2024-03-02T06:45:09.135Z,9.463056
2024-03-02T06:46:09.318Z,9.462992
2024-03-02T06:47:09.087Z,9.462967
2024-03-02T06:48:09.110Z,9.463085
2024-03-02T06:49:09.098Z,9.463018
2024-03-02T06:50:09.077Z,9.462929
2024-03-02T06:51:09.133Z,9.462838
2024-03-02T06:52:09.071Z,9.462854
2024-03-02T06:53:09.082Z,9.462901
2024-03-02T06:54:09.044Z,9.462949
2024-03-02T06:55:09.057Z,9.462895
2024-03-02T06:56:09.049Z,9.462884
2024-03-02T06:57:09.047Z,9.463293
2024-03-02T06:58:09.127Z,9.463313
2024-03-02T06:59:09.012Z,9.463127
2024-03-02T07:00:08.999Z,9.463022
2024-03-02T07:01:09.068Z,9.462996
2024-03-02T07:02:09.076Z,9.463053
2024-03-02T07:03:09.127Z,9.462977
2024-03-02T07:04:08.987Z,9.462993
2024-03-02T07:05:08.986Z,9.462989
2024-03-02T07:06:09.075Z,9.462961
2024-03-02T07:07:09.058Z,9.463014
2024-03-02T07:08:08.957Z,9.462981
2024-03-02T07:09:08.955Z,9.463015
2024-03-02T07:10:08.987Z,9.462990
2024-03-02T07:11:08.940Z,9.462955
2024-03-02T07:12:08.956Z,9.463003
2024-03-02T07:13:08.969Z,9.462964
2024-03-02T07:14:09.034Z,9.463004
2024-03-02T07:15:08.906Z,9.462966
2024-03-02T07:16:08.954Z,9.462951
2024-03-02T07:17:08.958Z,9.462978
2024-03-02T07:18:08.890Z,9.463027
2024-03-02T07:19:08.998Z,9.463005
2024-03-02T07:20:09.216Z,9.462934
2024-03-02T07:21:08.872Z,9.462983
2024-03-02T07:22:09.452Z,9.463033
2024-03-02T07:23:08.881Z,9.462983
2024-03-02T07:24:08.861Z,9.462947
2024-03-02T07:25:08.912Z,9.462979
2024-03-02T07:27:08.863Z,9.462893
2024-03-02T07:28:08.833Z,9.462977
2024-03-02T07:29:08.820Z,9.462926
2024-03-02T07:30:08.877Z,9.462992
2024-03-02T07:31:08.835Z,9.463033
2024-03-02T07:32:08.826Z,9.463058
2024-03-02T07:33:08.867Z,9.462996
2024-03-02T07:34:08.842Z,9.462948
2024-03-02T07:35:08.852Z,9.463177
2024-03-02T07:36:08.792Z,9.463080
2024-03-02T07:37:08.806Z,9.463060
2024-03-02T07:38:08.773Z,9.462940
2024-03-02T07:39:08.757Z,9.462975
2024-03-02T07:40:08.788Z,9.463002
2024-03-02T07:41:09.012Z,9.463035
2024-03-02T07:42:08.739Z,9.462986
2024-03-02T07:43:08.763Z,9.462994
2024-03-02T07:44:08.719Z,9.462982
2024-03-02T07:45:08.722Z,9.463012
2024-03-02T07:46:08.716Z,9.462996
2024-03-02T07:47:08.710Z,9.463002
2024-03-02T07:48:08.775Z,9.463003
2024-03-02T07:49:08.749Z,9.462980
2024-03-02T07:50:08.686Z,9.462953
2024-03-02T07:51:08.689Z,9.462968
2024-03-02T07:52:08.701Z,9.463001
2024-03-02T07:53:08.705Z,9.462950
2024-03-02T07:54:08.682Z,9.463000
2024-03-02T07:55:08.653Z,9.462943
2024-03-02T07:56:08.651Z,9.462934
2024-03-02T07:57:08.658Z,9.462990
2024-03-02T07:58:08.654Z,9.462989
2024-03-02T07:59:08.631Z,9.463011
2024-03-02T08:00:08.666Z,9.463001
2024-03-02T08:01:08.709Z,9.462980
2024-03-02T08:02:09.533Z,9.462976
2024-03-02T08:03:08.591Z,9.462931
2024-03-02T08:04:08.580Z,9.463041
2024-03-02T08:05:08.600Z,9.463016
2024-03-02T08:06:08.572Z,9.463030
2024-03-02T08:07:08.685Z,9.463007
2024-03-02T08:08:08.565Z,9.462974
2024-03-02T08:09:08.547Z,9.463008
2024-03-02T08:10:08.642Z,9.463008
2024-03-02T08:11:08.597Z,9.462991
2024-03-02T08:12:08.571Z,9.462965
2024-03-02T08:13:08.557Z,9.462940
2024-03-02T08:14:08.537Z,9.462943
2024-03-02T08:15:08.509Z,9.463038
2024-03-02T08:16:08.559Z,9.463003
2024-03-02T08:17:08.508Z,9.462985
2024-03-02T08:18:08.509Z,9.462977
2024-03-02T08:19:08.586Z,9.463005
2024-03-02T08:20:08.470Z,9.462994
2024-03-02T08:21:08.499Z,9.462831
2024-03-02T08:22:08.513Z,9.462967
2024-03-02T08:23:08.452Z,9.462996
2024-03-02T08:24:08.469Z,9.462870
2024-03-02T08:25:08.469Z,9.462998
2024-03-02T08:26:08.434Z,9.463183
2024-03-02T08:27:08.605Z,9.463060
2024-03-02T08:28:08.484Z,9.462954
2024-03-02T08:29:08.412Z,9.463014
2024-03-02T08:30:08.537Z,9.463017
2024-03-02T08:31:08.438Z,9.462961
2024-03-02T08:32:08.430Z,9.463000
2024-03-02T08:33:08.433Z,9.462960
2024-03-02T08:34:08.476Z,9.462823
2024-03-02T08:35:08.376Z,9.462714
2024-03-02T08:36:08.372Z,9.462778
2024-03-02T08:37:08.428Z,9.462863
2024-03-02T08:38:08.832Z,9.462945
2024-03-02T08:39:08.356Z,9.463064
2024-03-02T08:40:08.440Z,9.463134
2024-03-02T08:41:08.335Z,9.463140
2024-03-02T08:42:08.359Z,9.462956
2024-03-02T08:43:08.354Z,9.463026
2024-03-02T08:44:08.367Z,9.463015
2024-03-02T08:45:08.315Z,9.462993
2024-03-02T08:46:08.385Z,9.462829
2024-03-02T08:47:08.350Z,9.462942
2024-03-02T08:48:08.339Z,9.462941
2024-03-02T08:49:08.342Z,9.463077
2024-03-02T08:50:08.278Z,9.463063
2024-03-02T08:51:08.267Z,9.463116
2024-03-02T08:52:08.351Z,9.463083
2024-03-02T08:53:08.295Z,9.463064
2024-03-02T08:54:08.366Z,9.463135
2024-03-02T08:55:08.344Z,9.463022
2024-03-02T08:56:08.246Z,9.463058
2024-03-02T08:57:08.430Z,9.463113
2024-03-02T08:58:08.400Z,9.463073
2024-03-02T08:59:08.212Z,9.463239
2024-03-02T09:00:08.209Z,9.463310
2024-03-02T09:01:08.347Z,9.463288
2024-03-02T09:02:08.217Z,9.462998
2024-03-02T09:03:08.186Z,9.463090
2024-03-02T09:04:08.222Z,9.463205
2024-03-02T09:05:08.182Z,9.463019
2024-03-02T09:06:08.164Z,9.462951
2024-03-02T09:07:08.253Z,9.462970
2024-03-02T09:08:08.185Z,9.462996
2024-03-02T09:09:08.251Z,9.462959
2024-03-02T09:10:08.203Z,9.462994
2024-03-02T09:11:08.134Z,9.462987
2024-03-02T09:12:08.232Z,9.462975
2024-03-02T09:13:08.161Z,9.463009
2024-03-02T09:14:08.108Z,9.462945
2024-03-02T09:15:08.101Z,9.462988
2024-03-02T09:16:08.159Z,9.462988
2024-03-02T09:17:08.433Z,9.462987
2024-03-02T09:18:08.228Z,9.462957
2024-03-02T09:19:08.119Z,9.463035
2024-03-02T09:20:08.085Z,9.463008
2024-03-02T09:21:08.047Z,9.462966
2024-03-02T09:22:08.071Z,9.462920
2024-03-02T09:23:08.039Z,9.462953
2024-03-02T09:24:08.129Z,9.462924
2024-03-02T09:25:08.113Z,9.462970
2024-03-02T09:26:08.011Z,9.462941
2024-03-02T09:27:08.040Z,9.462955
2024-03-02T09:28:08.092Z,9.462948
2024-03-02T09:29:07.990Z,9.462925
2024-03-02T09:30:08.003Z,9.462954
2024-03-02T09:31:08.184Z,9.462944
2024-03-02T09:32:08.060Z,9.462940
2024-03-02T09:34:08.060Z,9.462981
2024-03-02T09:35:07.952Z,9.463034
2024-03-02T09:36:07.934Z,9.463005
2024-03-02T09:37:08.143Z,9.462988
2024-03-02T09:38:07.922Z,9.463016
2024-03-02T09:39:07.918Z,9.463014
2024-03-02T09:40:07.924Z,9.462912
2024-03-02T09:41:07.934Z,9.463045
2024-03-02T09:42:07.971Z,9.463069
2024-03-02T09:43:07.896Z,9.462989
2024-03-02T09:44:07.911Z,9.462978
2024-03-02T09:45:07.896Z,9.462991
2024-03-02T09:46:07.938Z,9.462929
2024-03-02T09:47:07.901Z,9.463057
2024-03-02T09:48:08.016Z,9.462974
2024-03-02T09:49:07.835Z,9.462928
2024-03-02T09:50:07.840Z,9.462980
2024-03-02T09:51:07.840Z,9.462934
2024-03-02T09:52:08.279Z,9.462843
2024-03-02T09:53:07.805Z,9.462775
2024-03-02T09:54:13.505Z,9.462999
2024-03-02T09:55:08.894Z,9.463184
2024-03-02T09:56:07.784Z,9.463007
2024-03-02T09:57:07.817Z,9.462938
2024-03-02T09:58:07.879Z,9.462960
2024-03-02T09:59:07.759Z,9.462911
2024-03-02T10:00:07.757Z,9.463108
2024-03-02T10:01:07.991Z,9.462984
2024-03-02T10:02:07.888Z,9.463274
2024-03-02T10:03:07.767Z,9.463215
2024-03-02T10:04:07.768Z,9.463086
2024-03-02T10:05:07.857Z,9.463143
2024-03-02T10:06:07.749Z,9.463161
2024-03-02T10:07:07.717Z,9.463137
2024-03-02T10:08:07.750Z,9.463064
2024-03-02T10:09:07.731Z,9.463032
2024-03-02T10:10:07.748Z,9.462964
2024-03-02T10:11:07.714Z,9.462947
2024-03-02T10:12:07.685Z,9.462976
2024-03-02T10:13:07.728Z,9.462950
2024-03-02T10:14:07.659Z,9.462954
2024-03-02T10:15:07.648Z,9.462926
2024-03-02T10:16:07.727Z,9.462998
2024-03-02T10:17:07.663Z,9.462973
2024-03-02T10:18:07.693Z,9.463043
2024-03-02T10:19:07.632Z,9.462992
2024-03-02T10:20:07.625Z,9.462960
2024-03-02T10:21:08.366Z,9.462976
2024-03-02T10:22:07.815Z,9.462907
2024-03-02T10:23:07.670Z,9.462936
2024-03-02T10:24:07.990Z,9.463006
2024-03-02T10:25:22.029Z,9.463038
2024-03-02T10:26:08.616Z,9.463054
2024-03-02T10:27:07.600Z,9.463071
2024-03-02T10:28:07.601Z,9.462976
2024-03-02T10:29:07.918Z,9.463014
2024-03-02T10:30:07.559Z,9.463012
2024-03-02T10:31:08.285Z,9.463011
2024-03-02T10:32:07.542Z,9.463041
2024-03-02T10:33:07.570Z,9.463083
2024-03-02T10:34:07.611Z,9.463096
2024-03-02T10:35:07.521Z,9.463101
2024-03-02T10:36:07.527Z,9.463044
2024-03-02T10:37:07.662Z,9.462995
2024-03-02T10:38:07.521Z,9.462965
2024-03-02T10:39:07.526Z,9.462991
2024-03-02T10:40:07.655Z,9.462963
2024-03-02T10:41:07.485Z,9.462908
2024-03-02T10:42:07.596Z,9.462927
2024-03-02T10:43:07.560Z,9.462952
2024-03-02T10:44:07.464Z,9.462985
2024-03-02T10:45:07.481Z,9.463027
2024-03-02T10:46:07.606Z,9.462995
2024-03-02T10:47:07.487Z,9.462997
2024-03-02T10:48:07.561Z,9.463045
2024-03-02T10:49:08.926Z,9.462995
2024-03-02T10:50:07.559Z,9.462982
2024-03-02T10:51:07.401Z,9.463037
2024-03-02T10:52:07.436Z,9.463062
2024-03-02T10:53:07.442Z,9.463042
2024-03-02T10:54:07.563Z,9.462995
2024-03-02T10:55:07.440Z,9.462990
2024-03-02T10:56:07.419Z,9.463061
2024-03-02T10:57:07.453Z,9.462964
2024-03-02T10:58:07.459Z,9.462973
2024-03-02T10:59:07.385Z,9.462908
2024-03-02T11:00:07.415Z,9.462888
2024-03-02T11:01:07.472Z,9.462924
2024-03-02T11:02:07.478Z,9.462936
2024-03-02T11:03:07.647Z,9.463011
2024-03-02T11:04:07.349Z,9.463055
2024-03-02T11:05:07.335Z,9.463007
2024-03-02T11:06:07.331Z,9.462959
2024-03-02T11:07:07.449Z,9.462997
2024-03-02T11:08:07.338Z,9.462994
2024-03-02T11:09:07.380Z,9.463044
2024-03-02T11:10:07.355Z,9.463009
2024-03-02T11:11:07.324Z,9.462989
2024-03-02T11:12:07.318Z,9.462946
2024-03-02T11:13:07.352Z,9.462983
2024-03-02T11:14:07.239Z,9.463021
2024-03-02T11:15:07.251Z,9.462996
2024-03-02T11:16:07.454Z,9.462955
2024-03-02T11:17:07.275Z,9.462976
2024-03-02T11:18:07.230Z,9.462996
2024-03-02T11:19:07.296Z,9.462955
2024-03-02T11:20:07.221Z,9.462925
2024-03-02T11:21:07.482Z,9.463031
2024-03-02T11:22:07.273Z,9.462949
2024-03-02T11:23:07.173Z,9.462994
2024-03-02T11:24:07.229Z,9.462976
2024-03-02T11:25:07.230Z,9.462981
2024-03-02T11:26:07.170Z,9.463019
2024-03-02T11:27:07.182Z,9.462980
2024-03-02T11:28:07.644Z,9.462976
2024-03-02T11:29:07.149Z,9.462997
2024-03-02T11:30:09.072Z,9.463024
2024-03-02T11:31:07.267Z,9.463046
2024-03-02T11:32:07.111Z,9.463013
2024-03-02T11:33:07.184Z,9.463005
2024-03-02T11:34:07.154Z,9.462989
2024-03-02T11:35:07.090Z,9.462844
2024-03-02T11:36:09.088Z,9.462973
2024-03-02T11:37:07.149Z,9.462966
2024-03-02T11:38:07.063Z,9.462941
2024-03-02T11:39:07.120Z,9.462974
2024-03-02T11:40:07.290Z,9.463032
2024-03-02T11:41:07.057Z,9.462976
2024-03-02T11:42:07.038Z,9.462931
2024-03-02T11:43:07.073Z,9.463037
2024-03-02T11:44:07.029Z,9.463033
2024-03-02T11:45:07.021Z,9.463105
2024-03-02T11:46:07.187Z,9.462958